Time;durP1;ratioP1;P1;durP2;ratioP2;P2;SDS_P1;SDS_P2;PMS_P1;PMS_P2;Temp;Humidity;BMP_temperature;BMP_pressure;BME280_temperature;BME280_humidity;BME280_pressure;Samples;Min_cycle;Max_cycle;Signal;HPM_P1;HPM_P2
2023/03/19 00:02:09;;;;;;;13.97;12.70;;;11.40;99.90;;;;;;4994529;28;20484;-61
2023/03/19 00:04:45;;;;;;;13.13;12.03;;;11.40;99.90;;;;;;4997820;28;20555;-62
2023/03/19 00:07:13;;;;;;;14.00;12.80;;;11.40;99.90;;;;;;4996836;28;20492;-62
2023/03/19 00:09:43;;;;;;;13.93;12.73;;;11.40;99.90;;;;;;4997270;28;21072;-62
2023/03/19 00:12:12;;;;;;;13.50;12.30;;;11.40;99.90;;;;;;4997426;28;20492;-62
2023/03/19 00:14:40;;;;;;;12.93;11.83;;;11.40;99.90;;;;;;4996958;28;20562;-62
2023/03/19 00:17:08;;;;;;;13.73;12.53;;;11.40;99.90;;;;;;5000040;28;20468;-62
2023/03/19 00:19:36;;;;;;;13.63;12.23;;;11.30;99.90;;;;;;5000135;28;20492;-62
2023/03/19 00:22:04;;;;;;;13.73;12.53;;;11.30;99.90;;;;;;4999050;28;20977;-62
2023/03/19 00:24:33;;;;;;;13.00;11.60;;;11.30;99.90;;;;;;4998964;28;20468;-63
2023/03/19 00:27:03;;;;;;;13.77;12.57;;;11.30;99.90;;;;;;4999050;28;20488;-62
2023/03/19 00:29:31;;;;;;;13.20;12.00;;;11.30;99.90;;;;;;4992310;28;20492;-62
2023/03/19 00:32:00;;;;;;;12.70;11.60;;;11.30;99.90;;;;;;4996338;28;20487;-62
2023/03/19 00:34:28;;;;;;;12.93;11.90;;;11.30;99.90;;;;;;4997691;28;20484;-61
2023/03/19 00:36:56;;;;;;;13.23;12.10;;;11.30;99.90;;;;;;4999590;28;20464;-63
2023/03/19 00:39:24;;;;;;;14.50;13.00;;;11.20;99.90;;;;;;4994445;28;20484;-62
2023/03/19 00:41:52;;;;;;;12.77;11.60;;;11.20;99.90;;;;;;4994028;28;20496;-62
2023/03/19 00:44:21;;;;;;;13.13;11.87;;;11.20;99.90;;;;;;4995922;28;20472;-63
2023/03/19 00:46:49;;;;;;;13.77;12.47;;;11.20;99.90;;;;;;4996904;28;20500;-62
2023/03/19 00:49:17;;;;;;;14.43;13.13;;;11.20;99.90;;;;;;4996037;28;20480;-62
2023/03/19 00:51:45;;;;;;;14.33;13.07;;;11.20;99.90;;;;;;4997893;28;20496;-62
2023/03/19 00:54:14;;;;;;;13.83;12.53;;;11.10;99.90;;;;;;4999712;28;20585;-62
2023/03/19 00:56:41;;;;;;;13.30;12.20;;;11.10;99.90;;;;;;4992845;28;20465;-63
2023/03/19 00:59:09;;;;;;;12.93;11.83;;;11.10;99.90;;;;;;4998605;28;20472;-62
2023/03/19 01:01:39;;;;;;;12.70;11.57;;;11.10;99.90;;;;;;4995051;28;20495;-62
2023/03/19 01:04:07;;;;;;;13.63;12.27;;;11.10;99.90;;;;;;4998355;28;20476;-62
2023/03/19 01:06:35;;;;;;;12.63;11.40;;;11.00;99.90;;;;;;4998397;28;20489;-62
2023/03/19 01:09:03;;;;;;;13.50;12.20;;;11.00;99.90;;;;;;4997838;28;20561;-62
2023/03/19 01:11:31;;;;;;;13.53;12.33;;;11.00;99.90;;;;;;4999583;28;20485;-62
2023/03/19 01:13:59;;;;;;;14.00;12.80;;;11.00;99.90;;;;;;4997226;28;20473;-62
2023/03/19 01:16:27;;;;;;;13.73;12.57;;;11.00;99.90;;;;;;4998217;28;20843;-62
2023/03/19 01:18:57;;;;;;;13.20;12.00;;;10.90;99.90;;;;;;4995994;28;21075;-62
2023/03/19 01:21:26;;;;;;;13.10;12.00;;;11.00;99.90;;;;;;4997216;28;20980;-62
2023/03/19 01:23:54;;;;;;;12.53;11.43;;;11.00;99.90;;;;;;5001414;28;20840;-62
2023/03/19 01:26:22;;;;;;;13.50;12.20;;;10.90;99.90;;;;;;4997288;28;20872;-62
2023/03/19 01:28:49;;;;;;;13.60;12.40;;;10.90;99.90;;;;;;5000714;28;20476;-62
2023/03/19 01:31:17;;;;;;;13.10;11.90;;;10.90;99.90;;;;;;4995548;28;20489;-62
2023/03/19 01:33:46;;;;;;;13.87;12.63;;;10.80;99.90;;;;;;4995461;28;20977;-62
2023/03/19 01:36:15;;;;;;;13.43;12.20;;;10.80;99.90;;;;;;4996572;28;20464;-62
2023/03/19 01:38:43;;;;;;;14.10;12.30;;;10.80;99.90;;;;;;4997054;28;20468;-62
2023/03/19 01:41:11;;;;;;;13.60;12.40;;;10.80;99.90;;;;;;4996774;28;20484;-62
2023/03/19 01:43:39;;;;;;;12.90;11.80;;;10.80;99.90;;;;;;4995366;28;20973;-62
2023/03/19 01:46:13;;;;;;;13.20;12.07;;;10.80;99.90;;;;;;5000297;28;20484;-61
2023/03/19 01:48:44;;;;;;;12.20;11.00;;;10.80;99.90;;;;;;4997233;28;20473;-62
2023/03/19 01:51:17;;;;;;;12.13;11.03;;;10.80;99.90;;;;;;4998093;28;20526;-61
2023/03/19 01:53:49;;;;;;;12.10;11.10;;;10.80;99.90;;;;;;4997152;28;20480;-62
2023/03/19 01:56:20;;;;;;;11.90;10.70;;;10.70;99.90;;;;;;4997174;28;20476;-61
2023/03/19 01:58:53;;;;;;;11.47;10.37;;;10.70;99.90;;;;;;4997010;28;20477;-62
2023/03/19 02:01:21;;;;;;;12.47;11.33;;;10.70;99.90;;;;;;4999016;28;20849;-61
2023/03/19 02:03:51;;;;;;;12.00;11.00;;;10.70;99.90;;;;;;4993665;28;20556;-62
2023/03/19 02:06:21;;;;;;;12.07;11.07;;;10.70;99.90;;;;;;4997656;28;20923;-61
2023/03/19 02:08:52;;;;;;;11.27;10.30;;;10.70;99.90;;;;;;4996771;28;20575;-61
2023/03/19 02:11:20;;;;;;;11.90;10.90;;;10.70;99.90;;;;;;4997038;28;20480;-62
2023/03/19 02:13:48;;;;;;;11.47;10.47;;;10.60;99.90;;;;;;4996704;28;20473;-62
2023/03/19 02:16:16;;;;;;;10.97;9.90;;;10.60;99.90;;;;;;4998104;28;20473;-62
2023/03/19 02:18:45;;;;;;;10.73;9.73;;;10.60;99.90;;;;;;4996814;28;20469;-62
2023/03/19 02:21:16;;;;;;;11.07;10.10;;;10.60;99.90;;;;;;4998211;28;20485;-62
2023/03/19 02:23:51;;;;;;;11.50;10.40;;;10.60;99.90;;;;;;4995985;28;20469;-61
2023/03/19 02:26:23;;;;;;;11.30;10.30;;;10.60;99.90;;;;;;4999137;28;20872;-63
2023/03/19 02:28:53;;;;;;;9.73;8.93;;;10.60;99.90;;;;;;4998108;28;20464;-63
2023/03/19 02:31:21;;;;;;;11.80;10.70;;;10.60;99.90;;;;;;4996164;28;20893;-62
2023/03/19 02:34:04;;;;;;;9.80;8.90;;;10.50;99.90;;;;;;4998037;28;20481;-62
2023/03/19 02:36:36;;;;;;;9.53;8.63;;;10.40;99.90;;;;;;4995901;28;20465;-63
2023/03/19 02:39:08;;;;;;;9.67;8.87;;;10.40;99.90;;;;;;4996418;28;20468;-63
2023/03/19 02:41:41;;;;;;;10.40;9.40;;;10.40;99.90;;;;;;4995228;28;21024;-62
2023/03/19 02:44:11;;;;;;;9.57;8.77;;;10.40;99.90;;;;;;4987020;28;20469;-62
2023/03/19 02:46:39;;;;;;;8.73;7.93;;;10.40;99.90;;;;;;4993532;28;20468;-62
2023/03/19 02:49:07;;;;;;;9.77;8.87;;;10.40;99.90;;;;;;4992108;28;20605;-62
2023/03/19 02:51:36;;;;;;;9.63;8.83;;;10.30;99.90;;;;;;4995156;28;21795;-62
2023/03/19 02:54:05;;;;;;;9.10;8.30;;;10.30;99.90;;;;;;4992983;28;20477;-63
2023/03/19 02:56:33;;;;;;;8.60;7.70;;;10.30;99.90;;;;;;4996052;28;20472;-63
2023/03/19 02:59:03;;;;;;;8.20;7.50;;;10.20;99.90;;;;;;4993493;28;20468;-63
2023/03/19 03:01:31;;;;;;;9.23;8.40;;;10.20;99.90;;;;;;4990391;28;20493;-62
2023/03/19 03:03:59;;;;;;;9.13;8.33;;;10.10;99.90;;;;;;4988828;28;20790;-63
2023/03/19 03:06:27;;;;;;;8.73;8.00;;;10.10;99.90;;;;;;4988717;28;20476;-63
2023/03/19 03:08:55;;;;;;;8.40;7.70;;;10.10;99.90;;;;;;4994908;28;20504;-62
2023/03/19 03:11:23;;;;;;;9.30;8.40;;;10.10;99.90;;;;;;4989757;28;21714;-63
2023/03/19 03:13:51;;;;;;;8.83;8.07;;;10.10;99.90;;;;;;4993413;28;20489;-63
2023/03/19 03:16:21;;;;;;;9.03;7.60;;;10.10;99.90;;;;;;4993369;28;20472;-63
2023/03/19 03:18:50;;;;;;;10.00;8.50;;;10.10;99.90;;;;;;4996252;28;20462;-62
2023/03/19 03:21:18;;;;;;;8.17;7.50;;;10.00;99.90;;;;;;4989058;28;20488;-63
2023/03/19 03:23:47;;;;;;;8.20;7.50;;;10.00;99.90;;;;;;4996316;28;20517;-62
2023/03/19 03:26:15;;;;;;;8.40;7.70;;;10.00;99.90;;;;;;4994861;28;20490;-63
2023/03/19 03:28:43;;;;;;;8.07;7.37;;;10.00;99.90;;;;;;4994180;28;20978;-63
2023/03/19 03:31:12;;;;;;;8.10;7.40;;;10.00;99.90;;;;;;4993009;28;20546;-63
2023/03/19 03:33:41;;;;;;;8.90;8.10;;;10.00;99.90;;;;;;4996284;28;20953;-63
2023/03/19 03:36:10;;;;;;;9.53;7.50;;;10.00;99.90;;;;;;4996302;28;20465;-62
2023/03/19 03:38:38;;;;;;;8.20;7.40;;;10.00;99.90;;;;;;4995300;28;20460;-63
2023/03/19 03:41:06;;;;;;;8.20;7.50;;;10.00;99.90;;;;;;4992545;28;20488;-62
2023/03/19 03:43:34;;;;;;;7.10;6.50;;;10.00;99.90;;;;;;4996476;28;20694;-63
2023/03/19 03:46:02;;;;;;;8.30;7.60;;;9.90;99.90;;;;;;4992394;28;20469;-62
2023/03/19 03:48:30;;;;;;;7.60;6.90;;;9.90;99.90;;;;;;4993274;28;20524;-62
2023/03/19 03:51:00;;;;;;;7.93;7.27;;;9.90;99.90;;;;;;4993326;28;20865;-63
2023/03/19 03:53:28;;;;;;;8.43;7.73;;;9.90;99.90;;;;;;4993229;28;20472;-62
2023/03/19 03:55:56;;;;;;;7.73;7.00;;;9.80;99.90;;;;;;4994072;28;20470;-63
2023/03/19 03:58:24;;;;;;;7.40;6.80;;;9.90;99.90;;;;;;4989388;28;20469;-61
2023/03/19 04:00:53;;;;;;;7.27;6.73;;;9.90;99.90;;;;;;4993064;28;20480;-62
2023/03/19 04:03:23;;;;;;;7.77;7.10;;;9.90;99.90;;;;;;4993557;28;20511;-62
2023/03/19 04:05:51;;;;;;;6.93;6.43;;;9.90;99.90;;;;;;4992636;28;20488;-62
2023/03/19 04:08:20;;;;;;;7.80;7.10;;;9.90;99.90;;;;;;4994034;28;20468;-62
2023/03/19 04:10:48;;;;;;;7.60;6.90;;;9.90;99.90;;;;;;4987574;28;20667;-62
2023/03/19 04:13:16;;;;;;;7.87;7.17;;;9.90;99.90;;;;;;4992764;28;21198;-63
2023/03/19 04:15:45;;;;;;;7.53;6.87;;;9.80;99.90;;;;;;4991617;28;20510;-64
2023/03/19 04:18:13;;;;;;;7.30;6.70;;;9.80;99.90;;;;;;4994761;28;20843;-64
2023/03/19 04:20:41;;;;;;;6.90;6.37;;;9.80;99.90;;;;;;4991713;28;20489;-63
2023/03/19 04:23:09;;;;;;;6.77;6.17;;;9.70;99.90;;;;;;4992324;28;20501;-62
2023/03/19 04:25:40;;;;;;;6.77;6.10;;;9.70;99.90;;;;;;4992076;28;20995;-62
2023/03/19 04:28:09;;;;;;;6.70;6.10;;;9.70;99.90;;;;;;4994182;28;20765;-61
2023/03/19 04:30:37;;;;;;;7.10;6.50;;;9.60;99.90;;;;;;4987180;28;20501;-62
2023/03/19 04:33:05;;;;;;;6.67;6.07;;;9.60;99.90;;;;;;4993656;28;20854;-62
2023/03/19 04:35:34;;;;;;;6.90;6.30;;;9.60;99.90;;;;;;4997861;28;20550;-61
2023/03/19 04:38:02;;;;;;;6.87;6.37;;;9.50;99.90;;;;;;4998495;28;20504;-62
2023/03/19 04:40:31;;;;;;;7.67;6.97;;;9.50;99.90;;;;;;4996300;28;20497;-62
2023/03/19 04:43:00;;;;;;;7.87;7.07;;;9.50;99.90;;;;;;4993371;28;20480;-62
2023/03/19 04:45:28;;;;;;;8.20;7.40;;;9.40;99.90;;;;;;4996840;28;20472;-62
2023/03/19 04:47:57;;;;;;;6.97;6.47;;;9.40;99.90;;;;;;4996206;28;20465;-62
2023/03/19 04:50:24;;;;;;;6.60;6.00;;;9.40;99.90;;;;;;4995609;28;20571;-62
2023/03/19 04:52:53;;;;;;;7.47;6.87;;;9.40;99.90;;;;;;4998170;28;20778;-62
2023/03/19 04:55:22;;;;;;;7.33;6.57;;;9.40;99.90;;;;;;4998863;28;20472;-62
2023/03/19 04:57:50;;;;;;;7.40;6.70;;;9.40;99.90;;;;;;4992848;28;20472;-61
2023/03/19 05:00:20;;;;;;;6.97;6.37;;;9.40;99.90;;;;;;4996303;28;20497;-62
2023/03/19 05:02:48;;;;;;;7.13;6.53;;;9.40;99.90;;;;;;4997290;28;20828;-61
2023/03/19 05:05:16;;;;;;;7.43;6.83;;;9.50;99.90;;;;;;4997301;28;20476;-62
2023/03/19 05:07:45;;;;;;;7.23;6.63;;;9.50;99.90;;;;;;4999077;28;20649;-62
2023/03/19 05:10:13;;;;;;;7.33;6.73;;;9.60;99.90;;;;;;4994061;28;20499;-61
2023/03/19 05:12:41;;;;;;;7.03;6.43;;;9.60;99.90;;;;;;4995660;28;20492;-62
2023/03/19 05:15:09;;;;;;;8.40;7.60;;;9.60;99.90;;;;;;4996766;28;20942;-62
2023/03/19 05:17:39;;;;;;;7.83;7.23;;;9.60;99.90;;;;;;4996656;28;20468;-61
2023/03/19 05:20:08;;;;;;;7.13;6.60;;;9.60;99.90;;;;;;4994489;28;20503;-62
2023/03/19 05:22:36;;;;;;;7.30;6.70;;;9.60;99.90;;;;;;4996739;28;20527;-61
2023/03/19 05:25:05;;;;;;;7.57;6.87;;;9.60;99.90;;;;;;5001817;28;20480;-62
2023/03/19 05:27:33;;;;;;;7.37;6.77;;;9.60;99.90;;;;;;4995917;28;20857;-62
2023/03/19 05:30:01;;;;;;;7.37;6.77;;;9.60;99.90;;;;;;4993336;28;20492;-62
2023/03/19 05:32:29;;;;;;;7.57;7.03;;;9.70;99.90;;;;;;4996903;27;20867;-62
2023/03/19 05:34:59;;;;;;;7.90;7.30;;;9.70;99.90;;;;;;4998663;28;20517;-62
2023/03/19 05:37:27;;;;;;;7.20;6.60;;;9.70;99.90;;;;;;4996505;28;20943;-62
2023/03/19 05:39:55;;;;;;;7.93;7.23;;;9.70;99.90;;;;;;4996961;28;20949;-62
2023/03/19 05:42:23;;;;;;;7.70;7.10;;;9.60;99.90;;;;;;4999050;28;20523;-62
2023/03/19 05:44:51;;;;;;;8.10;7.30;;;9.70;99.90;;;;;;4995339;28;20487;-62
2023/03/19 05:47:19;;;;;;;9.00;8.20;;;9.60;99.90;;;;;;4997506;28;20845;-62
2023/03/19 05:49:47;;;;;;;8.13;7.43;;;9.60;99.90;;;;;;4997802;28;20500;-62
2023/03/19 05:52:16;;;;;;;8.83;8.03;;;9.60;99.90;;;;;;4993702;28;20503;-62
2023/03/19 05:54:48;;;;;;;8.47;7.77;;;9.60;99.90;;;;;;4994793;28;20484;-62
2023/03/19 05:57:16;;;;;;;8.80;8.03;;;9.60;99.90;;;;;;4992469;28;20988;-62
2023/03/19 05:59:44;;;;;;;9.17;8.47;;;9.60;99.90;;;;;;4996377;28;20504;-62
2023/03/19 06:02:12;;;;;;;10.50;9.60;;;9.60;99.90;;;;;;4996253;28;20499;-62
2023/03/19 06:04:40;;;;;;;9.00;8.20;;;9.60;99.90;;;;;;4996455;28;20476;-62
2023/03/19 06:07:08;;;;;;;8.77;8.00;;;9.70;99.90;;;;;;4992383;28;20480;-62
2023/03/19 06:09:37;;;;;;;8.80;7.97;;;9.60;99.90;;;;;;4997718;28;20546;-62
2023/03/19 06:12:05;;;;;;;9.10;8.33;;;9.60;99.90;;;;;;4998129;28;20662;-62
2023/03/19 06:14:33;;;;;;;8.70;8.00;;;9.60;99.90;;;;;;4997781;28;20469;-62
2023/03/19 06:17:01;;;;;;;9.90;9.10;;;9.60;99.90;;;;;;5000247;28;20469;-62
2023/03/19 06:19:29;;;;;;;8.87;8.10;;;9.70;99.90;;;;;;4997267;28;21005;-62
2023/03/19 06:21:57;;;;;;;9.77;8.90;;;9.70;99.90;;;;;;4997464;28;20480;-62
2023/03/19 06:24:25;;;;;;;9.80;8.90;;;9.70;99.90;;;;;;4993335;28;21177;-62
2023/03/19 06:26:54;;;;;;;9.43;8.63;;;9.70;99.90;;;;;;4997408;28;20477;-62
2023/03/19 06:29:22;;;;;;;11.17;10.07;;;9.80;99.90;;;;;;4995826;28;20465;-62
2023/03/19 06:31:51;;;;;;;11.33;10.23;;;9.80;99.90;;;;;;4997391;28;20489;-62
2023/03/19 06:34:19;;;;;;;10.67;9.77;;;9.80;99.90;;;;;;4997941;28;20470;-62
2023/03/19 06:36:47;;;;;;;10.10;9.20;;;9.80;99.90;;;;;;4990771;28;20472;-62
2023/03/19 06:39:15;;;;;;;9.90;8.90;;;9.90;99.90;;;;;;4994362;28;20500;-61
2023/03/19 06:41:43;;;;;;;10.50;9.60;;;9.90;99.90;;;;;;4995881;28;21061;-62
2023/03/19 06:44:12;;;;;;;11.47;10.50;;;9.90;99.90;;;;;;4996114;28;20479;-62
2023/03/19 06:46:41;;;;;;;12.07;11.07;;;10.00;99.90;;;;;;4995037;28;20495;-62
2023/03/19 06:49:09;;;;;;;10.93;10.03;;;10.00;99.90;;;;;;4990556;28;20875;-62
2023/03/19 06:51:37;;;;;;;10.83;9.93;;;10.00;99.90;;;;;;4997324;28;20489;-62
2023/03/19 06:54:04;;;;;;;11.90;10.90;;;10.10;99.90;;;;;;4995781;28;20725;-62
2023/03/19 06:56:33;;;;;;;11.43;10.43;;;10.10;99.90;;;;;;4994979;28;20969;-63
2023/03/19 06:59:01;;;;;;;11.57;10.57;;;10.20;99.90;;;;;;4993441;28;20500;-63
2023/03/19 07:01:30;;;;;;;10.70;9.80;;;10.20;99.90;;;;;;4993529;28;20910;-63
2023/03/19 07:03:58;;;;;;;11.40;10.33;;;10.30;99.90;;;;;;4990718;28;20472;-63
2023/03/19 07:06:26;;;;;;;10.83;9.93;;;10.30;99.90;;;;;;4988811;28;20488;-63
2023/03/19 07:08:54;;;;;;;10.33;9.43;;;10.40;99.90;;;;;;4989773;28;20850;-63
2023/03/19 07:11:22;;;;;;;10.97;9.97;;;10.40;99.90;;;;;;4990633;27;20646;-63
2023/03/19 07:13:50;;;;;;;12.40;11.30;;;10.40;99.90;;;;;;4990865;28;20472;-70
2023/03/19 07:16:18;;;;;;;13.00;11.70;;;10.50;99.90;;;;;;4988948;28;20483;-62
2023/03/19 07:18:48;;;;;;;19.30;17.20;;;10.50;99.90;;;;;;4993491;28;21059;-62
2023/03/19 07:21:16;;;;;;;14.73;13.33;;;10.60;99.90;;;;;;4999110;28;20489;-63
2023/03/19 07:23:45;;;;;;;14.63;13.13;;;10.60;99.90;;;;;;4996826;28;20851;-63
2023/03/19 07:26:13;;;;;;;13.90;12.60;;;10.60;99.90;;;;;;4998674;28;21095;-63
2023/03/19 07:28:41;;;;;;;20.40;17.20;;;10.70;99.90;;;;;;4991602;28;20480;-63
2023/03/19 07:31:09;;;;;;;17.30;15.60;;;10.70;99.90;;;;;;4991742;28;20843;-63
2023/03/19 07:33:38;;;;;;;18.63;16.93;;;10.80;99.90;;;;;;4995436;28;20490;-62
2023/03/19 07:36:08;;;;;;;14.13;12.90;;;10.80;99.90;;;;;;4988702;28;20481;-63
2023/03/19 07:38:36;;;;;;;13.00;11.90;;;10.90;99.90;;;;;;4982444;28;20485;-62
2023/03/19 07:41:04;;;;;;;11.97;10.97;;;10.90;99.90;;;;;;4980029;28;20496;-62
2023/03/19 07:43:33;;;;;;;13.47;12.30;;;11.00;99.90;;;;;;4987536;28;20854;-64
2023/03/19 07:46:01;;;;;;;12.43;11.23;;;11.00;99.90;;;;;;4992918;28;20774;-62
2023/03/19 07:48:29;;;;;;;12.70;11.40;;;11.10;99.90;;;;;;4987418;28;20859;-63
2023/03/19 07:50:57;;;;;;;11.70;10.67;;;11.10;99.90;;;;;;4995479;28;20585;-62
2023/03/19 07:53:26;;;;;;;11.33;10.33;;;11.20;99.90;;;;;;4992790;28;20479;-62
2023/03/19 07:55:54;;;;;;;13.90;12.60;;;11.20;99.90;;;;;;4982964;28;20477;-65
2023/03/19 07:58:22;;;;;;;11.57;10.60;;;11.30;99.90;;;;;;4987585;28;20481;-63
2023/03/19 08:00:50;;;;;;;11.90;10.87;;;11.30;99.90;;;;;;4986775;28;20489;-62
2023/03/19 08:03:18;;;;;;;11.40;10.30;;;11.40;99.90;;;;;;4976841;28;20472;-64
2023/03/19 08:05:48;;;;;;;11.63;10.50;;;11.40;99.90;;;;;;4978715;28;20468;-63
2023/03/19 08:08:16;;;;;;;11.70;10.70;;;11.40;99.90;;;;;;4993528;28;20481;-62
2023/03/19 08:10:46;;;;;;;10.90;9.87;;;11.50;99.90;;;;;;4989842;28;21012;-62
2023/03/19 08:13:14;;;;;;;11.73;10.33;;;11.60;99.90;;;;;;4991230;28;20476;-60
2023/03/19 08:15:42;;;;;;;10.23;9.33;;;11.60;99.90;;;;;;4990933;28;20832;-61
2023/03/19 08:18:11;;;;;;;10.07;9.20;;;11.70;99.90;;;;;;4988110;28;20475;-63
2023/03/19 08:20:39;;;;;;;10.03;9.03;;;11.70;99.90;;;;;;4988552;28;20492;-63
2023/03/19 08:23:07;;;;;;;11.07;10.10;;;11.80;99.90;;;;;;4990603;28;20481;-63
2023/03/19 08:25:35;;;;;;;9.60;8.80;;;11.90;99.90;;;;;;4994296;28;21180;-61
2023/03/19 08:28:04;;;;;;;10.67;9.57;;;11.90;99.90;;;;;;4993436;28;20976;-62
2023/03/19 08:30:32;;;;;;;10.70;9.70;;;11.90;99.90;;;;;;4991597;28;20498;-64
2023/03/19 08:33:00;;;;;;;9.70;8.80;;;12.00;99.90;;;;;;4994049;28;20993;-63
2023/03/19 08:35:29;;;;;;;10.27;9.30;;;12.00;99.90;;;;;;4999330;28;21058;-62
2023/03/19 08:37:57;;;;;;;10.50;9.50;;;12.10;99.90;;;;;;4995488;28;20477;-61
2023/03/19 08:40:25;;;;;;;9.17;8.37;;;12.10;99.90;;;;;;4990382;28;20507;-63
2023/03/19 08:42:54;;;;;;;9.73;8.83;;;12.20;99.90;;;;;;4995841;28;20534;-62
2023/03/19 08:45:24;;;;;;;8.83;8.03;;;12.20;99.90;;;;;;4995952;28;20956;-63
2023/03/19 08:47:52;;;;;;;9.07;8.30;;;12.30;99.90;;;;;;4992865;28;20480;-63
2023/03/19 08:50:20;;;;;;;9.50;8.60;;;12.40;99.90;;;;;;4988330;28;20492;-63
2023/03/19 08:52:48;;;;;;;9.07;8.27;;;12.50;99.90;;;;;;4991742;28;20484;-64
2023/03/19 08:55:17;;;;;;;8.93;8.20;;;12.50;99.90;;;;;;4985680;28;21095;-64
2023/03/19 08:57:44;;;;;;;8.43;7.63;;;12.60;99.90;;;;;;4976217;28;20470;-64
2023/03/19 09:00:14;;;;;;;9.00;8.20;;;12.70;99.90;;;;;;4978423;28;21012;-63
2023/03/19 09:02:43;;;;;;;8.47;7.77;;;12.80;99.90;;;;;;4979380;28;20488;-63
2023/03/19 09:05:11;;;;;;;8.10;7.50;;;12.80;99.90;;;;;;4979474;28;20479;-64
2023/03/19 09:07:39;;;;;;;8.47;7.77;;;12.90;99.90;;;;;;4983581;28;20476;-64
2023/03/19 09:10:08;;;;;;;9.00;8.10;;;12.90;99.90;;;;;;4973303;28;20503;-63
2023/03/19 09:12:36;;;;;;;7.13;6.53;;;12.90;99.90;;;;;;4978154;28;20488;-62
2023/03/19 09:15:05;;;;;;;7.27;6.70;;;13.00;99.90;;;;;;4982701;28;21015;-62
2023/03/19 09:17:33;;;;;;;8.10;7.30;;;13.10;99.90;;;;;;4980794;28;20480;-62
2023/03/19 09:20:04;;;;;;;8.13;7.30;;;13.20;99.90;;;;;;4984741;28;20611;-63
2023/03/19 09:22:33;;;;;;;7.30;6.43;;;13.20;99.90;;;;;;4982997;28;20996;-61
2023/03/19 09:25:01;;;;;;;7.43;6.83;;;13.40;99.90;;;;;;4982719;28;20485;-61
2023/03/19 09:27:29;;;;;;;6.57;5.97;;;13.50;99.90;;;;;;4974447;28;20973;-62
2023/03/19 09:29:56;;;;;;;7.00;6.40;;;13.70;99.90;;;;;;4980433;28;20524;-63
2023/03/19 09:32:25;;;;;;;6.30;5.73;;;14.00;99.90;;;;;;4978782;28;23617;-62
2023/03/19 09:34:53;;;;;;;7.70;6.10;;;14.10;99.90;;;;;;4979097;28;20500;-63
2023/03/19 09:37:22;;;;;;;5.50;5.00;;;14.20;99.90;;;;;;4982889;28;20468;-63
2023/03/19 09:39:50;;;;;;;5.80;5.27;;;14.40;99.90;;;;;;4995777;28;20496;-62
2023/03/19 09:42:43;;;;;;;6.53;5.97;;;14.40;99.90;;;;;;4988067;28;20601;-62
2023/03/19 09:45:14;;;;;;;5.10;4.70;;;14.40;99.90;;;;;;4991146;28;20473;-63
2023/03/19 09:47:45;;;;;;;5.00;4.60;;;14.40;99.90;;;;;;4986424;28;20487;-63
2023/03/19 09:50:15;;;;;;;5.20;4.80;;;14.30;99.90;;;;;;4987514;28;20497;-63
2023/03/19 09:52:47;;;;;;;6.00;4.77;;;14.40;99.90;;;;;;4980228;28;20488;-63
2023/03/19 09:55:34;;;;;;;4.30;3.90;;;14.40;99.90;;;;;;4981889;28;20993;-63
2023/03/19 09:58:08;;;;;;;4.10;3.80;;;14.50;99.90;;;;;;4987091;28;20482;-62
2023/03/19 10:00:38;;;;;;;4.23;3.90;;;14.60;99.90;;;;;;4979337;28;20504;-64
2023/03/19 10:03:16;;;;;;;3.70;3.40;;;14.70;99.90;;;;;;4976330;28;20479;-64
2023/03/19 10:05:51;;;;;;;3.90;3.60;;;14.90;99.90;;;;;;4981743;28;21591;-62
2023/03/19 10:08:38;;;;;;;3.77;3.50;;;15.00;99.90;;;;;;4980147;28;20562;-62
2023/03/19 10:11:24;;;;;;;4.27;3.87;;;15.00;99.90;;;;;;4986374;28;20498;-62
2023/03/19 10:13:59;;;;;;;3.73;3.27;;;15.10;99.90;;;;;;4977914;28;20476;-63
2023/03/19 10:16:29;;;;;;;3.90;3.10;;;15.10;99.90;;;;;;4978465;28;20476;-64
2023/03/19 10:19:00;;;;;;;3.20;2.90;;;15.20;99.90;;;;;;4972094;28;20479;-63
2023/03/19 10:21:34;;;;;;;5.37;3.13;;;15.30;99.90;;;;;;4986783;28;20872;-65
2023/03/19 10:24:07;;;;;;;3.17;2.87;;;15.40;99.90;;;;;;4987806;28;20476;-64
2023/03/19 10:26:35;;;;;;;2.93;2.73;;;15.40;99.90;;;;;;4985644;28;20638;-64
2023/03/19 10:29:08;;;;;;;4.00;3.00;;;15.40;99.90;;;;;;4976576;28;20499;-64
2023/03/19 10:31:47;;;;;;;2.83;2.63;;;15.40;99.90;;;;;;4982123;28;20507;-63
2023/03/19 10:34:30;;;;;;;2.90;2.67;;;15.40;99.90;;;;;;4979416;28;20483;-63
2023/03/19 10:37:00;;;;;;;4.40;3.23;;;15.40;99.90;;;;;;4976446;28;20857;-63
2023/03/19 10:39:31;;;;;;;3.20;2.60;;;15.40;99.90;;;;;;4982114;28;20587;-63
2023/03/19 10:42:10;;;;;;;3.07;2.77;;;15.50;99.90;;;;;;4987574;28;20485;-63
2023/03/19 10:44:43;;;;;;;3.47;3.17;;;15.60;99.90;;;;;;4988938;28;20476;-63
2023/03/19 10:47:13;;;;;;;3.30;3.10;;;15.70;99.90;;;;;;4984827;28;20547;-64
2023/03/19 10:49:42;;;;;;;3.70;3.40;;;15.80;99.90;;;;;;4988172;28;23637;-65
2023/03/19 10:52:20;;;;;;;3.60;3.30;;;16.00;99.90;;;;;;4977358;28;20479;-64
2023/03/19 10:54:56;;;;;;;3.77;3.47;;;16.20;99.90;;;;;;4989264;28;20481;-65
2023/03/19 10:57:28;;;;;;;2.90;2.70;;;16.30;99.90;;;;;;4983883;28;20478;-64
2023/03/19 10:59:56;;;;;;;3.57;3.20;;;16.40;99.90;;;;;;4985806;28;20503;-65
2023/03/19 11:02:29;;;;;;;2.93;2.73;;;16.40;99.90;;;;;;4974895;28;20505;-65
2023/03/19 11:05:08;;;;;;;3.40;3.10;;;16.40;99.90;;;;;;4986974;28;20479;-64
2023/03/19 11:07:37;;;;;;;3.27;2.97;;;16.30;99.90;;;;;;4982032;28;20469;-65
2023/03/19 11:10:14;;;;;;;3.10;2.90;;;16.30;99.90;;;;;;4990522;28;20690;-65
2023/03/19 11:12:48;;;;;;;3.30;3.03;;;16.30;99.90;;;;;;4982462;28;20495;-64
2023/03/19 11:15:21;;;;;;;3.60;3.30;;;16.30;99.90;;;;;;4989482;28;20674;-65
2023/03/19 11:17:56;;;;;;;3.70;3.40;;;16.30;99.90;;;;;;4992141;28;20480;-64
2023/03/19 11:20:29;;;;;;;3.60;3.27;;;16.20;99.90;;;;;;4982295;28;20499;-65
2023/03/19 11:23:01;;;;;;;4.30;4.00;;;16.20;99.90;;;;;;4987372;28;20546;-64
2023/03/19 11:25:35;;;;;;;4.00;3.70;;;16.20;99.90;;;;;;4992294;28;21403;-64
2023/03/19 11:28:07;;;;;;;3.83;3.53;;;16.20;99.90;;;;;;4984687;28;20498;-64
2023/03/19 11:30:45;;;;;;;3.90;3.60;;;16.30;99.90;;;;;;4987970;28;21019;-63
2023/03/19 11:33:44;;;;;;;4.03;3.73;;;16.40;99.90;;;;;;4983386;28;21014;-64
2023/03/19 11:36:16;;;;;;;4.37;3.77;;;16.60;99.90;;;;;;4980356;28;21064;-64
2023/03/19 11:39:06;;;;;;;4.00;3.70;;;16.80;99.90;;;;;;4982098;28;20820;-64
2023/03/19 11:41:49;;;;;;;4.20;3.77;;;16.90;99.90;;;;;;4985424;28;20492;-64
2023/03/19 11:44:25;;;;;;;4.97;4.50;;;17.10;99.90;;;;;;4985161;28;21513;-64
2023/03/19 11:47:02;;;;;;;5.13;4.73;;;17.20;99.90;;;;;;4978201;28;21087;-63
2023/03/19 11:50:07;;;;;;;5.53;4.50;;;17.30;99.90;;;;;;4974177;28;20491;-64
2023/03/19 11:52:41;;;;;;;4.40;4.00;;;17.40;99.90;;;;;;4986819;28;21187;-64
2023/03/19 11:55:20;;;;;;;5.23;4.73;;;17.40;99.90;;;;;;4984047;28;20476;-64
2023/03/19 11:58:11;;;;;;;5.27;4.83;;;17.40;99.90;;;;;;4985133;28;20469;-63
2023/03/19 12:00:47;;;;;;;5.40;4.90;;;17.20;99.90;;;;;;4985215;28;20519;-64
2023/03/19 12:03:50;;;;;;;5.10;4.70;;;17.10;99.90;;;;;;4977701;28;21038;-63
2023/03/19 12:06:29;;;;;;;6.37;4.97;;;17.00;99.90;;;;;;4988109;28;20519;-63
2023/03/19 12:09:02;;;;;;;6.37;5.20;;;16.90;99.90;;;;;;4982565;28;20472;-62
2023/03/19 12:11:42;;;;;;;6.97;5.20;;;16.90;99.90;;;;;;4983905;28;20489;-63
2023/03/19 12:14:26;;;;;;;5.53;5.03;;;16.80;99.90;;;;;;4986528;28;21013;-63
2023/03/19 12:17:15;;;;;;;6.20;5.07;;;16.80;99.90;;;;;;4981655;28;20998;-63
2023/03/19 12:20:13;;;;;;;6.30;5.70;;;16.80;99.90;;;;;;4982871;28;20500;-63
2023/03/19 12:22:55;;;;;;;6.17;5.67;;;16.70;99.90;;;;;;4982036;28;20519;-63
2023/03/19 12:25:35;;;;;;;6.47;5.87;;;16.70;99.90;;;;;;4977335;28;20857;-63
2023/03/19 12:28:10;;;;;;;6.30;5.77;;;16.50;99.90;;;;;;4978110;28;20505;-62
2023/03/19 12:30:44;;;;;;;6.50;5.83;;;16.50;99.90;;;;;;4979649;28;20503;-63
2023/03/19 12:33:24;;;;;;;6.93;6.33;;;16.40;99.90;;;;;;4981496;28;20494;-64
2023/03/19 12:35:57;;;;;;;6.60;6.10;;;16.40;99.90;;;;;;4973763;28;20476;-62
2023/03/19 12:38:27;;;;;;;6.40;5.80;;;16.30;99.90;;;;;;4973200;28;20464;-63
2023/03/19 12:41:00;;;;;;;6.43;5.83;;;16.30;99.90;;;;;;4972624;28;20495;-62
2023/03/19 12:43:35;;;;;;;6.47;5.87;;;16.40;99.90;;;;;;4992566;28;20488;-63
2023/03/19 12:46:10;;;;;;;5.07;4.73;;;16.50;99.90;;;;;;4982709;28;20467;-64
2023/03/19 12:48:43;;;;;;;6.07;4.67;;;16.60;99.90;;;;;;4991068;28;20476;-63
2023/03/19 12:51:17;;;;;;;5.73;5.33;;;17.00;99.90;;;;;;4995295;28;20504;-64
2023/03/19 12:53:49;;;;;;;5.50;5.00;;;17.40;99.90;;;;;;4989704;28;20467;-64
2023/03/19 12:56:25;;;;;;;4.67;4.30;;;17.60;99.90;;;;;;4988163;28;20471;-63
2023/03/19 12:58:59;;;;;;;5.53;4.70;;;17.70;99.90;;;;;;4984009;28;20482;-65
2023/03/19 13:01:33;;;;;;;4.10;3.80;;;17.70;99.90;;;;;;4984358;28;20999;-61